CheckWX is a tool to help pilots better visualize weather data.  It is not intended as a substitute for an official pre-flight weather briefing.

17:59:53 UTC

CYXP METAR
Pangnirtung Airport
Pangnirtung, Canada
Current

60 mins ago

CYXP 171700Z 08008G16KT 15SM VCSH DRSN OVC048 M20/M28 A2988 RMK SC8 SLP125
Observed
Feb-17 @ 17:00 UTC
Wind
  • 080° at 8 KTS
  • Gusting to 16 KTS
Visibility
15 SM
Flight Rules
VFR
Conditions
Low drifting Snow
Cloud Levels
  • Overcast at 4,800' AGL
Temperature
-20°C / -4°F
Dewpoint
-28°C / -18°F
Humidity
49%
Altimeter
29.88" Hg
Pressure
1012.5 hPa
Previous

22 hours ago

CYXP 162000Z 00000KT 15SM FEW040 FEW220 M28/M31 A3007 RMK SC1CI2 SC TR LAST STFD OBS/NEXT 171600Z SLP188
Observed
Feb-16 @ 20:00 UTC
Visibility
15 SM
Flight Rules
VFR
Cloud Levels
  • Few at 4,000' AGL
  • Few at 22,000' AGL
Temperature
-28°C / -18°F
Dewpoint
-31°C / -24°F
Humidity
75%
Altimeter
30.07" Hg
Pressure
1018.8 hPa
Previous

23 hours ago

CYXP 161900Z VRB02KT 15SM FEW100 FEW220 M28/M32 A3008 RMK AC1CI2 AC TR SLP190
Observed
Feb-16 @ 19:00 UTC
Wind
  • Variable at 2 KTS
Visibility
15 SM
Flight Rules
VFR
Cloud Levels
  • Few at 10,000' AGL
  • Few at 22,000' AGL
Temperature
-28°C / -18°F
Dewpoint
-32°C / -26°F
Humidity
69%
Altimeter
30.08" Hg
Pressure
1019 hPa